sensor_id;sensor_type;location;lat;lon;timestamp;pressure;altitude;pressure_sealevel;temperature;humidity
10958;BME280;5531;42.570;23.676;2023-04-07T00:00:08;91639.13;;;0.43;77.88
10958;BME280;5531;42.570;23.676;2023-04-07T00:02:37;91650.91;;;0.45;77.88
10958;BME280;5531;42.570;23.676;2023-04-07T00:05:07;91652.75;;;0.53;77.66
10958;BME280;5531;42.570;23.676;2023-04-07T00:07:36;91648.75;;;0.59;77.70
10958;BME280;5531;42.570;23.676;2023-04-07T00:10:09;91647.81;;;0.60;77.48
10958;BME280;5531;42.570;23.676;2023-04-07T00:12:38;91650.09;;;0.63;77.01
10958;BME280;5531;42.570;23.676;2023-04-07T00:15:08;91653.19;;;0.66;77.16
10958;BME280;5531;42.570;23.676;2023-04-07T00:17:37;91650.75;;;0.65;76.94
10958;BME280;5531;42.570;23.676;2023-04-07T00:20:07;91649.44;;;0.61;76.83
10958;BME280;5531;42.570;23.676;2023-04-07T00:22:36;91647.31;;;0.56;76.49
10958;BME280;5531;42.570;23.676;2023-04-07T00:25:08;91650.19;;;0.53;77.11
10958;BME280;5531;42.570;23.676;2023-04-07T00:27:37;91641.34;;;0.56;77.54
10958;BME280;5531;42.570;23.676;2023-04-07T00:30:07;91639.56;;;0.56;78.50
10958;BME280;5531;42.570;23.676;2023-04-07T00:32:36;91643.25;;;0.53;78.33
10958;BME280;5531;42.570;23.676;2023-04-07T00:35:06;91639.56;;;0.56;78.34
10958;BME280;5531;42.570;23.676;2023-04-07T00:37:35;91643.78;;;0.57;78.39
10958;BME280;5531;42.570;23.676;2023-04-07T00:40:08;91625.56;;;0.59;79.03
10958;BME280;5531;42.570;23.676;2023-04-07T00:42:37;91629.28;;;0.56;78.91
10958;BME280;5531;42.570;23.676;2023-04-07T00:45:07;91631.34;;;0.52;79.87
10958;BME280;5531;42.570;23.676;2023-04-07T00:47:37;91627.34;;;0.40;81.66
10958;BME280;5531;42.570;23.676;2023-04-07T00:50:08;91635.16;;;0.48;80.69
10958;BME280;5531;42.570;23.676;2023-04-07T00:52:37;91635.44;;;0.45;80.41
10958;BME280;5531;42.570;23.676;2023-04-07T00:55:09;91630.19;;;0.37;80.81
10958;BME280;5531;42.570;23.676;2023-04-07T00:57:38;91631.84;;;0.38;80.64
10958;BME280;5531;42.570;23.676;2023-04-07T01:00:09;91629.03;;;0.31;77.69
10958;BME280;5531;42.570;23.676;2023-04-07T01:02:41;91627.97;;;0.24;77.66
10958;BME280;5531;42.570;23.676;2023-04-07T01:05:15;91629.94;;;0.12;77.86
10958;BME280;5531;42.570;23.676;2023-04-07T01:07:51;91630.38;;;0.08;77.23
10958;BME280;5531;42.570;23.676;2023-04-07T01:10:34;91624.56;;;0.06;74.07
10958;BME280;5531;42.570;23.676;2023-04-07T01:13:07;91630.13;;;0.01;73.67
10958;BME280;5531;42.570;23.676;2023-04-07T01:15:38;91627.59;;;-0.09;73.55
10958;BME280;5531;42.570;23.676;2023-04-07T01:18:12;91625.03;;;-0.09;73.29
10958;BME280;5531;42.570;23.676;2023-04-07T01:20:44;91633.31;;;-0.15;73.45
10958;BME280;5531;42.570;23.676;2023-04-07T01:23:20;91628.06;;;-0.23;75.94
10958;BME280;5531;42.570;23.676;2023-04-07T01:26:13;91612.50;;;-0.22;74.62
10958;BME280;5531;42.570;23.676;2023-04-07T01:31:59;91622.94;;;-0.23;79.29
10958;BME280;5531;42.570;23.676;2023-04-07T01:34:31;91616.84;;;-0.22;80.42
10958;BME280;5531;42.570;23.676;2023-04-07T01:37:01;91613.75;;;-0.26;81.21
10958;BME280;5531;42.570;23.676;2023-04-07T01:39:31;91616.47;;;-0.27;79.70
10958;BME280;5531;42.570;23.676;2023-04-07T01:42:03;91611.88;;;-0.33;79.91
10958;BME280;5531;42.570;23.676;2023-04-07T01:44:33;91618.66;;;-0.32;78.31
10958;BME280;5531;42.570;23.676;2023-04-07T01:47:06;91611.72;;;-0.32;78.86
10958;BME280;5531;42.570;23.676;2023-04-07T01:49:35;91606.44;;;-0.30;78.60
10958;BME280;5531;42.570;23.676;2023-04-07T01:52:06;91611.16;;;-0.26;78.37
10958;BME280;5531;42.570;23.676;2023-04-07T01:54:36;91615.53;;;-0.36;78.38
10958;BME280;5531;42.570;23.676;2023-04-07T01:57:05;91614.59;;;-0.35;78.62
10958;BME280;5531;42.570;23.676;2023-04-07T01:59:34;91611.59;;;-0.30;77.46
10958;BME280;5531;42.570;23.676;2023-04-07T02:02:06;91615.81;;;-0.29;77.23
10958;BME280;5531;42.570;23.676;2023-04-07T02:04:39;91611.16;;;-0.26;77.07
10958;BME280;5531;42.570;23.676;2023-04-07T02:07:17;91609.06;;;-0.40;73.84
10958;BME280;5531;42.570;23.676;2023-04-07T02:09:49;91612.00;;;-0.35;74.20
10958;BME280;5531;42.570;23.676;2023-04-07T02:12:19;91605.50;;;-0.29;74.91
10958;BME280;5531;42.570;23.676;2023-04-07T02:14:49;91602.09;;;-0.30;75.00
10958;BME280;5531;42.570;23.676;2023-04-07T02:17:23;91599.25;;;-0.27;75.21
10958;BME280;5531;42.570;23.676;2023-04-07T02:19:52;91601.28;;;-0.30;74.34
10958;BME280;5531;42.570;23.676;2023-04-07T02:22:22;91595.72;;;-0.26;75.06
10958;BME280;5531;42.570;23.676;2023-04-07T02:24:51;91602.47;;;-0.25;74.63
10958;BME280;5531;42.570;23.676;2023-04-07T02:27:20;91600.97;;;-0.17;75.16
10958;BME280;5531;42.570;23.676;2023-04-07T02:29:49;91604.63;;;-0.20;72.58
10958;BME280;5531;42.570;23.676;2023-04-07T02:32:20;91606.06;;;-0.35;72.31
10958;BME280;5531;42.570;23.676;2023-04-07T02:34:49;91610.09;;;-0.33;72.74
10958;BME280;5531;42.570;23.676;2023-04-07T02:37:18;91602.81;;;-0.38;74.16
10958;BME280;5531;42.570;23.676;2023-04-07T02:39:47;91603.53;;;-0.45;74.10
10958;BME280;5531;42.570;23.676;2023-04-07T02:42:16;91607.22;;;-0.58;72.68
10958;BME280;5531;42.570;23.676;2023-04-07T02:44:45;91602.03;;;-0.48;73.18
10958;BME280;5531;42.570;23.676;2023-04-07T02:47:14;91610.69;;;-0.39;73.85
10958;BME280;5531;42.570;23.676;2023-04-07T02:49:46;91606.34;;;-0.39;72.83
10958;BME280;5531;42.570;23.676;2023-04-07T02:52:14;91607.03;;;-0.46;72.47
10958;BME280;5531;42.570;23.676;2023-04-07T02:54:43;91613.13;;;-0.47;72.22
10958;BME280;5531;42.570;23.676;2023-04-07T02:57:12;91615.00;;;-0.40;72.69
10958;BME280;5531;42.570;23.676;2023-04-07T02:59:41;91613.09;;;-0.38;73.32
10958;BME280;5531;42.570;23.676;2023-04-07T03:02:10;91608.97;;;-0.48;72.00
10958;BME280;5531;42.570;23.676;2023-04-07T03:04:41;91612.06;;;-0.45;73.24
10958;BME280;5531;42.570;23.676;2023-04-07T03:07:12;91613.81;;;-0.45;72.76
10958;BME280;5531;42.570;23.676;2023-04-07T03:09:41;91604.72;;;-0.40;72.91
10958;BME280;5531;42.570;23.676;2023-04-07T03:12:10;91614.88;;;-0.38;73.16
10958;BME280;5531;42.570;23.676;2023-04-07T03:14:39;91615.44;;;-0.44;72.67
10958;BME280;5531;42.570;23.676;2023-04-07T03:17:08;91613.53;;;-0.42;73.81
10958;BME280;5531;42.570;23.676;2023-04-07T03:19:37;91617.44;;;-0.38;73.67
10958;BME280;5531;42.570;23.676;2023-04-07T03:22:06;91616.63;;;-0.39;72.22
10958;BME280;5531;42.570;23.676;2023-04-07T03:24:38;91616.69;;;-0.21;72.64
10958;BME280;5531;42.570;23.676;2023-04-07T03:27:07;91619.28;;;-0.21;72.15
10958;BME280;5531;42.570;23.676;2023-04-07T03:29:36;91620.34;;;-0.23;70.95
10958;BME280;5531;42.570;23.676;2023-04-07T03:32:05;91618.47;;;-0.21;71.31
10958;BME280;5531;42.570;23.676;2023-04-07T03:34:34;91614.69;;;-0.27;69.72
10958;BME280;5531;42.570;23.676;2023-04-07T03:37:03;91619.56;;;-0.24;70.95
10958;BME280;5531;42.570;23.676;2023-04-07T03:39:32;91622.75;;;-0.12;70.52
10958;BME280;5531;42.570;23.676;2023-04-07T03:42:04;91629.00;;;-0.14;70.27
10958;BME280;5531;42.570;23.676;2023-04-07T03:44:33;91613.13;;;-0.10;70.49
10958;BME280;5531;42.570;23.676;2023-04-07T03:47:02;91619.31;;;-0.03;70.38
10958;BME280;5531;42.570;23.676;2023-04-07T03:49:31;91617.53;;;-0.02;70.29
10958;BME280;5531;42.570;23.676;2023-04-07T03:52:02;91617.69;;;-0.04;72.35
10958;BME280;5531;42.570;23.676;2023-04-07T03:54:31;91624.31;;;-0.01;72.66
10958;BME280;5531;42.570;23.676;2023-04-07T03:57:00;91632.06;;;-0.01;71.97
10958;BME280;5531;42.570;23.676;2023-04-07T03:59:32;91633.00;;;-0.02;76.44
10958;BME280;5531;42.570;23.676;2023-04-07T04:02:01;91628.81;;;-0.03;74.36
10958;BME280;5531;42.570;23.676;2023-04-07T04:04:30;91637.09;;;-0.09;71.24
10958;BME280;5531;42.570;23.676;2023-04-07T04:06:59;91634.84;;;-0.22;70.90
10958;BME280;5531;42.570;23.676;2023-04-07T04:09:28;91635.63;;;-0.12;71.60
10958;BME280;5531;42.570;23.676;2023-04-07T04:11:57;91634.94;;;-0.14;71.40
10958;BME280;5531;42.570;23.676;2023-04-07T04:14:26;91644.69;;;-0.08;71.48
10958;BME280;5531;42.570;23.676;2023-04-07T04:16:58;91636.69;;;-0.05;70.99
10958;BME280;5531;42.570;23.676;2023-04-07T04:19:27;91639.41;;;-0.06;71.42
10958;BME280;5531;42.570;23.676;2023-04-07T04:21:56;91641.97;;;-0.06;71.54
10958;BME280;5531;42.570;23.676;2023-04-07T04:24:25;91637.88;;;0.01;70.37
10958;BME280;5531;42.570;23.676;2023-04-07T04:26:54;91642.03;;;0.12;71.05
10958;BME280;5531;42.570;23.676;2023-04-07T04:29:24;91644.81;;;0.18;71.14
10958;BME280;5531;42.570;23.676;2023-04-07T04:31:53;91653.72;;;0.24;68.82
10958;BME280;5531;42.570;23.676;2023-04-07T04:34:24;91656.69;;;0.29;68.75
10958;BME280;5531;42.570;23.676;2023-04-07T04:36:53;91645.59;;;0.47;70.03
10958;BME280;5531;42.570;23.676;2023-04-07T04:39:23;91661.81;;;0.57;67.75
10958;BME280;5531;42.570;23.676;2023-04-07T04:41:52;91657.97;;;0.61;67.22
10958;BME280;5531;42.570;23.676;2023-04-07T04:44:21;91658.22;;;0.68;69.01
10958;BME280;5531;42.570;23.676;2023-04-07T04:46:50;91654.81;;;0.67;69.06
10958;BME280;5531;42.570;23.676;2023-04-07T04:49:19;91659.97;;;0.67;68.57
10958;BME280;5531;42.570;23.676;2023-04-07T04:51:51;91656.22;;;0.62;70.07
10958;BME280;5531;42.570;23.676;2023-04-07T04:54:20;91656.91;;;0.82;69.46
10958;BME280;5531;42.570;23.676;2023-04-07T04:56:49;91657.19;;;0.79;68.88
10958;BME280;5531;42.570;23.676;2023-04-07T04:59:18;91671.16;;;0.94;68.35
10958;BME280;5531;42.570;23.676;2023-04-07T05:01:47;91674.13;;;0.99;68.00
10958;BME280;5531;42.570;23.676;2023-04-07T05:04:16;91671.47;;;1.09;66.74
10958;BME280;5531;42.570;23.676;2023-04-07T05:06:45;91664.41;;;1.11;66.14
10958;BME280;5531;42.570;23.676;2023-04-07T05:09:17;91662.91;;;1.08;66.43
10958;BME280;5531;42.570;23.676;2023-04-07T05:11:46;91672.25;;;1.27;67.24
10958;BME280;5531;42.570;23.676;2023-04-07T05:14:15;91668.41;;;1.32;66.01
10958;BME280;5531;42.570;23.676;2023-04-07T05:16:44;91675.06;;;1.34;67.24
10958;BME280;5531;42.570;23.676;2023-04-07T05:19:13;91676.44;;;1.28;65.85
10958;BME280;5531;42.570;23.676;2023-04-07T05:21:42;91673.53;;;1.50;68.51
10958;BME280;5531;42.570;23.676;2023-04-07T05:24:11;91677.25;;;1.47;67.53
10958;BME280;5531;42.570;23.676;2023-04-07T05:26:42;91678.34;;;1.44;66.12
10958;BME280;5531;42.570;23.676;2023-04-07T05:29:12;91676.13;;;1.50;66.13
10958;BME280;5531;42.570;23.676;2023-04-07T05:31:41;91671.47;;;1.53;66.86
10958;BME280;5531;42.570;23.676;2023-04-07T05:34:10;91680.88;;;1.62;67.46
10958;BME280;5531;42.570;23.676;2023-04-07T05:36:39;91676.94;;;1.76;66.95
10958;BME280;5531;42.570;23.676;2023-04-07T05:39:08;91669.03;;;2.04;67.97
10958;BME280;5531;42.570;23.676;2023-04-07T05:41:37;91679.34;;;2.04;65.90
10958;BME280;5531;42.570;23.676;2023-04-07T05:44:09;91681.16;;;2.12;65.73
10958;BME280;5531;42.570;23.676;2023-04-07T05:46:38;91679.13;;;2.24;66.68
10958;BME280;5531;42.570;23.676;2023-04-07T05:49:07;91683.03;;;2.36;64.39
10958;BME280;5531;42.570;23.676;2023-04-07T05:51:36;91691.59;;;2.28;63.91
10958;BME280;5531;42.570;23.676;2023-04-07T05:54:05;91687.53;;;2.26;61.97
10958;BME280;5531;42.570;23.676;2023-04-07T05:56:34;91687.56;;;2.34;65.52
10958;BME280;5531;42.570;23.676;2023-04-07T05:59:03;91691.78;;;2.35;63.80
10958;BME280;5531;42.570;23.676;2023-04-07T06:01:34;91696.31;;;2.49;64.27
10958;BME280;5531;42.570;23.676;2023-04-07T06:04:03;91685.06;;;2.67;64.27
10958;BME280;5531;42.570;23.676;2023-04-07T06:06:32;91687.47;;;2.60;63.61
10958;BME280;5531;42.570;23.676;2023-04-07T06:09:01;91682.34;;;2.68;63.15
10958;BME280;5531;42.570;23.676;2023-04-07T06:11:30;91687.69;;;2.75;62.85
10958;BME280;5531;42.570;23.676;2023-04-07T06:13:59;91687.06;;;2.81;60.63
10958;BME280;5531;42.570;23.676;2023-04-07T06:16:28;91687.53;;;2.77;60.23
10958;BME280;5531;42.570;23.676;2023-04-07T06:19:00;91687.41;;;2.94;60.68
10958;BME280;5531;42.570;23.676;2023-04-07T06:21:29;91688.41;;;3.18;60.76
10958;BME280;5531;42.570;23.676;2023-04-07T06:23:58;91685.03;;;3.42;60.40
10958;BME280;5531;42.570;23.676;2023-04-07T06:26:27;91692.81;;;3.51;61.90
10958;BME280;5531;42.570;23.676;2023-04-07T06:28:57;91693.44;;;3.28;57.48
10958;BME280;5531;42.570;23.676;2023-04-07T06:31:27;91691.81;;;3.27;59.43
10958;BME280;5531;42.570;23.676;2023-04-07T06:33:56;91691.63;;;3.61;58.42
10958;BME280;5531;42.570;23.676;2023-04-07T06:36:27;91691.00;;;3.51;57.37
10958;BME280;5531;42.570;23.676;2023-04-07T06:38:57;91690.19;;;3.75;60.05
10958;BME280;5531;42.570;23.676;2023-04-07T06:41:26;91691.47;;;3.71;56.06
10958;BME280;5531;42.570;23.676;2023-04-07T06:43:56;91701.66;;;3.81;56.65
10958;BME280;5531;42.570;23.676;2023-04-07T06:46:25;91698.94;;;3.58;57.10
10958;BME280;5531;42.570;23.676;2023-04-07T06:48:54;91702.00;;;3.70;58.96
10958;BME280;5531;42.570;23.676;2023-04-07T06:51:23;91702.47;;;3.57;56.48
10958;BME280;5531;42.570;23.676;2023-04-07T06:53:55;91700.88;;;3.80;58.20
10958;BME280;5531;42.570;23.676;2023-04-07T06:56:24;91706.69;;;3.82;60.11
10958;BME280;5531;42.570;23.676;2023-04-07T06:58:53;91704.09;;;3.82;58.45
10958;BME280;5531;42.570;23.676;2023-04-07T07:01:22;91713.50;;;3.83;59.54
10958;BME280;5531;42.570;23.676;2023-04-07T07:03:51;91708.63;;;3.97;58.24
10958;BME280;5531;42.570;23.676;2023-04-07T07:06:20;91706.34;;;4.02;56.63
10958;BME280;5531;42.570;23.676;2023-04-07T07:08:49;91702.47;;;3.90;58.29
10958;BME280;5531;42.570;23.676;2023-04-07T07:11:20;91699.34;;;4.02;59.46
10958;BME280;5531;42.570;23.676;2023-04-07T07:13:50;91711.50;;;4.02;57.95
10958;BME280;5531;42.570;23.676;2023-04-07T07:16:19;91709.41;;;3.97;56.56
10958;BME280;5531;42.570;23.676;2023-04-07T07:18:49;91701.78;;;3.96;58.19
10958;BME280;5531;42.570;23.676;2023-04-07T07:21:18;91699.22;;;3.96;58.87
10958;BME280;5531;42.570;23.676;2023-04-07T07:23:47;91714.09;;;4.02;57.90
10958;BME280;5531;42.570;23.676;2023-04-07T07:26:16;91717.50;;;4.02;57.93
10958;BME280;5531;42.570;23.676;2023-04-07T07:28:48;91721.69;;;4.12;58.56
10958;BME280;5531;42.570;23.676;2023-04-07T07:31:17;91722.84;;;4.17;57.79
10958;BME280;5531;42.570;23.676;2023-04-07T07:33:46;91719.06;;;4.28;60.47
10958;BME280;5531;42.570;23.676;2023-04-07T07:36:16;91715.50;;;4.29;58.83
10958;BME280;5531;42.570;23.676;2023-04-07T07:38:45;91722.31;;;4.38;58.07
10958;BME280;5531;42.570;23.676;2023-04-07T07:41:14;91730.38;;;4.44;59.82
10958;BME280;5531;42.570;23.676;2023-04-07T07:43:43;91720.34;;;4.40;58.18
10958;BME280;5531;42.570;23.676;2023-04-07T07:46:15;91717.50;;;4.19;59.77
10958;BME280;5531;42.570;23.676;2023-04-07T07:48:44;91723.56;;;4.43;57.99
10958;BME280;5531;42.570;23.676;2023-04-07T07:51:13;91714.97;;;4.50;60.30
10958;BME280;5531;42.570;23.676;2023-04-07T07:53:43;91712.81;;;4.62;57.74
10958;BME280;5531;42.570;23.676;2023-04-07T07:56:12;91730.47;;;4.67;57.09
10958;BME280;5531;42.570;23.676;2023-04-07T07:58:41;91726.09;;;4.59;56.23
10958;BME280;5531;42.570;23.676;2023-04-07T08:01:10;91727.38;;;4.71;58.43
10958;BME280;5531;42.570;23.676;2023-04-07T08:03:41;91728.16;;;4.72;58.36
10958;BME280;5531;42.570;23.676;2023-04-07T08:06:10;91726.34;;;4.81;58.74
10958;BME280;5531;42.570;23.676;2023-04-07T08:08:39;91723.56;;;4.82;57.36
10958;BME280;5531;42.570;23.676;2023-04-07T08:11:08;91729.38;;;4.92;60.27
10958;BME280;5531;42.570;23.676;2023-04-07T08:13:37;91726.63;;;4.94;59.08
10958;BME280;5531;42.570;23.676;2023-04-07T08:16:10;91736.06;;;4.87;57.24
10958;BME280;5531;42.570;23.676;2023-04-07T08:18:41;91740.09;;;4.89;57.96
10958;BME280;5531;42.570;23.676;2023-04-07T08:21:11;91727.22;;;5.04;61.92
10958;BME280;5531;42.570;23.676;2023-04-07T08:23:40;91735.59;;;5.14;60.01
10958;BME280;5531;42.570;23.676;2023-04-07T08:26:09;91736.03;;;5.26;58.63
10958;BME280;5531;42.570;23.676;2023-04-07T08:28:38;91731.53;;;5.43;59.30
10958;BME280;5531;42.570;23.676;2023-04-07T08:31:07;91730.38;;;5.69;59.24
10958;BME280;5531;42.570;23.676;2023-04-07T08:33:36;91729.47;;;5.77;59.22
10958;BME280;5531;42.570;23.676;2023-04-07T08:36:08;91729.41;;;5.85;58.27
10958;BME280;5531;42.570;23.676;2023-04-07T08:38:37;91734.25;;;5.88;55.37
10958;BME280;5531;42.570;23.676;2023-04-07T08:41:09;91734.75;;;5.68;54.35
10958;BME280;5531;42.570;23.676;2023-04-07T08:43:39;91731.91;;;5.55;56.03
10958;BME280;5531;42.570;23.676;2023-04-07T08:46:11;91730.91;;;5.41;58.35
10958;BME280;5531;42.570;23.676;2023-04-07T08:48:43;91733.06;;;5.29;57.37
10958;BME280;5531;42.570;23.676;2023-04-07T08:51:31;91737.03;;;5.17;59.98
10958;BME280;5531;42.570;23.676;2023-04-07T08:54:05;91723.72;;;5.43;59.70
10958;BME280;5531;42.570;23.676;2023-04-07T08:56:37;91735.06;;;5.74;56.07
10958;BME280;5531;42.570;23.676;2023-04-07T08:59:09;91723.94;;;5.80;57.08
10958;BME280;5531;42.570;23.676;2023-04-07T09:01:39;91740.13;;;5.67;55.50
10958;BME280;5531;42.570;23.676;2023-04-07T09:04:09;91728.88;;;5.90;57.49
10958;BME280;5531;42.570;23.676;2023-04-07T09:06:41;91735.69;;;5.99;54.95
10958;BME280;5531;42.570;23.676;2023-04-07T09:09:10;91738.84;;;5.86;58.34
10958;BME280;5531;42.570;23.676;2023-04-07T09:11:39;91737.88;;;5.64;55.91
10958;BME280;5531;42.570;23.676;2023-04-07T09:14:08;91746.53;;;5.56;55.16
10958;BME280;5531;42.570;23.676;2023-04-07T09:16:37;91750.22;;;5.39;56.67
10958;BME280;5531;42.570;23.676;2023-04-07T09:19:07;91743.50;;;5.21;58.62
10958;BME280;5531;42.570;23.676;2023-04-07T09:21:51;91741.59;;;5.15;59.71
10958;BME280;5531;42.570;23.676;2023-04-07T09:24:22;91752.97;;;5.14;59.44
10958;BME280;5531;42.570;23.676;2023-04-07T09:27:08;91742.47;;;5.30;58.68
10958;BME280;5531;42.570;23.676;2023-04-07T09:29:39;91748.41;;;5.39;56.74
10958;BME280;5531;42.570;23.676;2023-04-07T09:32:08;91758.59;;;5.49;57.04
10958;BME280;5531;42.570;23.676;2023-04-07T09:34:39;91740.06;;;5.52;55.87
10958;BME280;5531;42.570;23.676;2023-04-07T09:37:21;91742.88;;;5.65;56.12
10958;BME280;5531;42.570;23.676;2023-04-07T09:39:51;91753.03;;;5.75;53.64
10958;BME280;5531;42.570;23.676;2023-04-07T09:42:21;91745.38;;;5.82;55.87
10958;BME280;5531;42.570;23.676;2023-04-07T09:44:51;91750.59;;;5.82;55.46
10958;BME280;5531;42.570;23.676;2023-04-07T09:47:25;91749.31;;;5.78;53.11
10958;BME280;5531;42.570;23.676;2023-04-07T09:49:56;91739.72;;;6.01;56.10
10958;BME280;5531;42.570;23.676;2023-04-07T09:52:51;91737.16;;;6.16;57.54
10958;BME280;5531;42.570;23.676;2023-04-07T09:55:21;91741.59;;;6.08;56.17
10958;BME280;5531;42.570;23.676;2023-04-07T09:57:51;91746.06;;;5.99;56.14
10958;BME280;5531;42.570;23.676;2023-04-07T10:00:20;91737.31;;;6.00;56.85
10958;BME280;5531;42.570;23.676;2023-04-07T10:02:49;91740.91;;;6.29;57.49
10958;BME280;5531;42.570;23.676;2023-04-07T10:05:19;91751.69;;;6.26;57.85
10958;BME280;5531;42.570;23.676;2023-04-07T10:07:54;91750.84;;;6.10;55.74
10958;BME280;5531;42.570;23.676;2023-04-07T10:10:24;91750.34;;;6.15;54.20
10958;BME280;5531;42.570;23.676;2023-04-07T10:12:56;91751.47;;;6.12;53.50
10958;BME280;5531;42.570;23.676;2023-04-07T10:15:25;91749.81;;;6.19;53.97
10958;BME280;5531;42.570;23.676;2023-04-07T10:17:54;91749.16;;;6.17;55.49
10958;BME280;5531;42.570;23.676;2023-04-07T10:20:24;91752.84;;;6.23;54.23
10958;BME280;5531;42.570;23.676;2023-04-07T10:23:03;91754.47;;;6.24;53.55
10958;BME280;5531;42.570;23.676;2023-04-07T10:25:35;91752.25;;;6.21;56.28
10958;BME280;5531;42.570;23.676;2023-04-07T10:28:08;91757.63;;;6.19;53.81
10958;BME280;5531;42.570;23.676;2023-04-07T10:30:40;91757.53;;;6.28;55.89
10958;BME280;5531;42.570;23.676;2023-04-07T10:33:10;91760.78;;;6.45;53.69
10958;BME280;5531;42.570;23.676;2023-04-07T10:36:03;91764.56;;;6.57;51.88
10958;BME280;5531;42.570;23.676;2023-04-07T10:38:35;91750.00;;;6.63;53.45
10958;BME280;5531;42.570;23.676;2023-04-07T10:41:31;91761.53;;;6.68;53.97
10958;BME280;5531;42.570;23.676;2023-04-07T10:44:01;91767.53;;;6.84;55.96
10958;BME280;5531;42.570;23.676;2023-04-07T10:49:34;91765.09;;;6.97;53.86
10958;BME280;5531;42.570;23.676;2023-04-07T10:52:21;91764.28;;;6.96;53.18
10958;BME280;5531;42.570;23.676;2023-04-07T10:58:23;91757.56;;;6.72;53.68
10958;BME280;5531;42.570;23.676;2023-04-07T11:01:17;91765.53;;;6.56;55.56
10958;BME280;5531;42.570;23.676;2023-04-07T11:03:57;91769.94;;;6.40;54.83
10958;BME280;5531;42.570;23.676;2023-04-07T11:06:29;91773.56;;;6.16;58.08
10958;BME280;5531;42.570;23.676;2023-04-07T11:08:59;91772.84;;;6.22;55.91
10958;BME280;5531;42.570;23.676;2023-04-07T11:11:36;91777.06;;;6.23;57.02
10958;BME280;5531;42.570;23.676;2023-04-07T11:14:09;91776.44;;;6.21;55.80
10958;BME280;5531;42.570;23.676;2023-04-07T11:16:40;91763.75;;;6.03;57.14
10958;BME280;5531;42.570;23.676;2023-04-07T11:19:10;91772.91;;;5.91;58.70
10958;BME280;5531;42.570;23.676;2023-04-07T11:21:40;91779.41;;;5.95;56.83
10958;BME280;5531;42.570;23.676;2023-04-07T11:24:09;91776.88;;;6.10;56.53
10958;BME280;5531;42.570;23.676;2023-04-07T11:26:40;91773.31;;;6.26;55.79
10958;BME280;5531;42.570;23.676;2023-04-07T11:29:12;91774.31;;;6.40;56.56
10958;BME280;5531;42.570;23.676;2023-04-07T11:31:46;91770.38;;;6.44;56.47
10958;BME280;5531;42.570;23.676;2023-04-07T11:34:16;91771.88;;;6.38;56.65
10958;BME280;5531;42.570;23.676;2023-04-07T11:36:45;91770.19;;;6.31;59.25
10958;BME280;5531;42.570;23.676;2023-04-07T11:39:18;91759.41;;;6.34;56.65
10958;BME280;5531;42.570;23.676;2023-04-07T11:41:48;91755.72;;;6.28;58.28
10958;BME280;5531;42.570;23.676;2023-04-07T11:44:21;91749.41;;;6.08;58.79
10958;BME280;5531;42.570;23.676;2023-04-07T11:46:55;91757.13;;;6.16;59.78
10958;BME280;5531;42.570;23.676;2023-04-07T11:49:25;91759.13;;;6.29;56.92
10958;BME280;5531;42.570;23.676;2023-04-07T11:52:00;91769.09;;;6.40;56.58
10958;BME280;5531;42.570;23.676;2023-04-07T11:54:39;91760.78;;;6.45;56.34
10958;BME280;5531;42.570;23.676;2023-04-07T11:57:09;91759.38;;;6.57;56.91
10958;BME280;5531;42.570;23.676;2023-04-07T11:59:41;91762.84;;;6.79;55.20
10958;BME280;5531;42.570;23.676;2023-04-07T12:02:30;91769.25;;;6.76;55.23
10958;BME280;5531;42.570;23.676;2023-04-07T12:04:59;91757.91;;;6.69;56.64
10958;BME280;5531;42.570;23.676;2023-04-07T12:07:28;91765.63;;;6.63;56.18
10958;BME280;5531;42.570;23.676;2023-04-07T12:10:16;91759.44;;;6.78;57.15
10958;BME280;5531;42.570;23.676;2023-04-07T12:12:46;91757.28;;;6.97;57.13
10958;BME280;5531;42.570;23.676;2023-04-07T12:15:18;91761.25;;;6.93;54.78
10958;BME280;5531;42.570;23.676;2023-04-07T12:17:48;91763.03;;;6.92;56.12
10958;BME280;5531;42.570;23.676;2023-04-07T12:20:17;91755.03;;;6.79;56.72
10958;BME280;5531;42.570;23.676;2023-04-07T12:22:50;91760.16;;;6.72;57.46
10958;BME280;5531;42.570;23.676;2023-04-07T12:25:19;91757.56;;;6.87;58.24
10958;BME280;5531;42.570;23.676;2023-04-07T12:27:48;91766.16;;;7.18;58.16
10958;BME280;5531;42.570;23.676;2023-04-07T12:30:19;91756.97;;;7.37;56.15
10958;BME280;5531;42.570;23.676;2023-04-07T12:32:49;91762.25;;;7.43;55.55
10958;BME280;5531;42.570;23.676;2023-04-07T12:35:18;91759.81;;;7.42;56.54
10958;BME280;5531;42.570;23.676;2023-04-07T12:37:47;91759.38;;;7.23;57.23
10958;BME280;5531;42.570;23.676;2023-04-07T12:40:17;91779.16;;;7.32;55.95
10958;BME280;5531;42.570;23.676;2023-04-07T12:42:47;91758.31;;;7.32;55.48
10958;BME280;5531;42.570;23.676;2023-04-07T12:45:16;91766.31;;;7.31;54.88
10958;BME280;5531;42.570;23.676;2023-04-07T12:47:47;91768.22;;;7.22;56.51
10958;BME280;5531;42.570;23.676;2023-04-07T12:50:17;91766.09;;;6.96;55.84
10958;BME280;5531;42.570;23.676;2023-04-07T12:52:46;91766.53;;;7.00;55.41
10958;BME280;5531;42.570;23.676;2023-04-07T12:55:15;91763.75;;;6.86;55.24
10958;BME280;5531;42.570;23.676;2023-04-07T12:57:44;91770.66;;;6.94;56.24
10958;BME280;5531;42.570;23.676;2023-04-07T13:00:13;91774.63;;;6.90;58.45
10958;BME280;5531;42.570;23.676;2023-04-07T13:02:42;91764.03;;;6.76;56.09
10958;BME280;5531;42.570;23.676;2023-04-07T13:05:14;91773.88;;;6.66;55.95
10958;BME280;5531;42.570;23.676;2023-04-07T13:07:43;91775.25;;;6.62;57.40
10958;BME280;5531;42.570;23.676;2023-04-07T13:10:13;91774.88;;;6.65;59.39
10958;BME280;5531;42.570;23.676;2023-04-07T13:12:42;91777.50;;;6.65;58.18
10958;BME280;5531;42.570;23.676;2023-04-07T13:15:11;91766.72;;;6.68;57.47
10958;BME280;5531;42.570;23.676;2023-04-07T13:17:40;91774.53;;;6.68;58.71
10958;BME280;5531;42.570;23.676;2023-04-07T13:20:09;91780.38;;;6.70;58.24
10958;BME280;5531;42.570;23.676;2023-04-07T13:22:41;91776.97;;;6.85;57.98
10958;BME280;5531;42.570;23.676;2023-04-07T13:25:11;91784.22;;;6.89;57.25
10958;BME280;5531;42.570;23.676;2023-04-07T13:27:40;91775.78;;;6.72;56.30
10958;BME280;5531;42.570;23.676;2023-04-07T13:30:10;91771.81;;;6.61;57.33
10958;BME280;5531;42.570;23.676;2023-04-07T13:32:39;91778.66;;;6.63;58.57
10958;BME280;5531;42.570;23.676;2023-04-07T13:35:08;91774.88;;;6.50;57.62